createdAt,value
2017-07-06T00:00:55.212Z,9.73
2017-07-06T00:01:55.199Z,9.73
2017-07-06T00:02:54.880Z,9.65
2017-07-06T00:03:55.170Z,9.75
2017-07-06T00:04:55.165Z,9.6
2017-07-06T00:05:55.165Z,9.67
2017-07-06T00:06:55.148Z,9.65
2017-07-06T00:07:55.142Z,9.67
2017-07-06T00:08:54.825Z,9.67
2017-07-06T00:09:55.182Z,9.68
2017-07-06T00:10:55.116Z,9.63
2017-07-06T00:11:54.795Z,9.68
2017-07-06T00:12:55.088Z,9.74
2017-07-06T00:13:54.771Z,9.62
2017-07-06T00:14:55.079Z,9.68
2017-07-06T00:15:54.748Z,9.63
2017-07-06T00:16:55.056Z,9.67
2017-07-06T00:17:54.726Z,9.63
2017-07-06T00:18:55.032Z,9.58
2017-07-06T00:19:55.017Z,9.55
2017-07-06T00:20:54.701Z,9.62
2017-07-06T00:21:55.001Z,9.6
2017-07-06T00:22:54.988Z,9.48
2017-07-06T00:23:54.361Z,9.53
2017-07-06T00:24:54.969Z,9.55
2017-07-06T00:25:54.959Z,9.5
2017-07-06T00:26:54.952Z,9.52
2017-07-06T00:27:54.639Z,9.45
2017-07-06T00:28:54.923Z,9.5
2017-07-06T00:29:54.922Z,9.48
2017-07-06T00:30:54.911Z,9.37
2017-07-06T00:31:54.597Z,9.49
2017-07-06T00:32:54.895Z,9.38
2017-07-06T00:33:54.882Z,9.5
2017-07-06T00:34:54.568Z,9.41
2017-07-06T00:35:54.861Z,9.37
2017-07-06T00:36:54.860Z,9.53
2017-07-06T00:37:54.547Z,9.35
2017-07-06T00:38:54.829Z,9.35
2017-07-06T00:39:54.831Z,9.35
2017-07-06T00:40:54.815Z,9.38
2017-07-06T00:41:54.799Z,9.32
2017-07-06T00:42:54.795Z,9.4
2017-07-06T00:43:54.471Z,9.4
2017-07-06T00:44:54.473Z,9.35
2017-07-06T00:45:54.765Z,9.37
2017-07-06T00:46:54.447Z,9.38
2017-07-06T00:47:54.755Z,9.34
2017-07-06T00:48:54.735Z,9.35
2017-07-06T00:49:54.728Z,9.31
2017-07-06T00:50:54.717Z,9.34
2017-07-06T00:51:54.710Z,9.34
2017-07-06T00:52:54.395Z,9.24
2017-07-06T00:53:54.692Z,9.32
2017-07-06T00:54:54.680Z,9.23
2017-07-06T00:55:54.366Z,9.3
2017-07-06T00:56:54.665Z,9.32
2017-07-06T00:57:54.649Z,9.27
2017-07-06T00:58:54.017Z,9.24
2017-07-06T00:59:54.633Z,9.3
2017-07-06T01:00:54.636Z,9.24
2017-07-06T01:01:54.679Z,9.31
2017-07-06T01:02:54.287Z,9.24
2017-07-06T01:03:54.600Z,9.27
2017-07-06T01:04:54.582Z,9.2
2017-07-06T01:05:54.574Z,9.23
2017-07-06T01:06:54.564Z,9.32
2017-07-06T01:07:54.237Z,9.37
2017-07-06T01:08:54.543Z,9.4
2017-07-06T01:09:54.535Z,9.23
2017-07-06T01:10:54.207Z,9.3
2017-07-06T01:11:54.520Z,9.32
2017-07-06T01:12:54.496Z,9.3
2017-07-06T01:13:54.497Z,9.31
2017-07-06T01:14:54.500Z,9.31
2017-07-06T01:15:54.469Z,9.26
2017-07-06T01:16:54.465Z,9.26
2017-07-06T01:17:54.459Z,9.35
2017-07-06T01:18:54.442Z,9.32
2017-07-06T01:19:54.446Z,9.3
2017-07-06T01:20:54.423Z,9.34
2017-07-06T01:21:54.105Z,9.35
2017-07-06T01:22:54.398Z,9.34
2017-07-06T01:23:54.394Z,9.37
2017-07-06T01:24:54.079Z,9.37
2017-07-06T01:25:54.370Z,9.37
2017-07-06T01:26:54.357Z,9.37
2017-07-06T01:27:54.047Z,9.38
2017-07-06T01:28:54.352Z,9.37
2017-07-06T01:29:54.332Z,9.35
2017-07-06T01:30:54.329Z,9.38
2017-07-06T01:31:54.312Z,9.35
2017-07-06T01:32:53.998Z,9.41
2017-07-06T01:33:54.284Z,9.34
2017-07-06T01:34:53.966Z,9.37
2017-07-06T01:35:53.650Z,9.37
2017-07-06T01:36:53.952Z,9.37
2017-07-06T01:37:54.243Z,9.38
2017-07-06T01:38:54.236Z,9.38
2017-07-06T01:39:54.225Z,9.37
2017-07-06T01:40:54.232Z,9.38
2017-07-06T01:41:54.204Z,9.35
2017-07-06T01:42:54.192Z,9.4
2017-07-06T01:43:54.184Z,9.35
2017-07-06T01:44:54.172Z,9.37
2017-07-06T01:45:54.169Z,9.4
2017-07-06T01:46:54.167Z,9.37
2017-07-06T01:47:54.149Z,9.37
2017-07-06T01:48:54.141Z,9.4
2017-07-06T01:49:54.199Z,9.4
2017-07-06T01:50:54.126Z,9.37
2017-07-06T01:51:54.107Z,9.4
2017-07-06T01:52:54.100Z,9.38
2017-07-06T01:53:54.091Z,9.37
2017-07-06T01:54:54.074Z,9.34
2017-07-06T01:55:54.071Z,9.35
2017-07-06T01:56:54.054Z,9.37
2017-07-06T01:57:54.043Z,9.35
2017-07-06T01:58:54.040Z,9.32
2017-07-06T01:59:54.035Z,9.38
2017-07-06T02:00:54.019Z,9.32
2017-07-06T02:01:54.018Z,9.34
2017-07-06T02:02:53.999Z,9.37
2017-07-06T02:03:53.988Z,9.37
2017-07-06T02:04:53.979Z,9.37
2017-07-06T02:05:53.963Z,9.5
2017-07-06T02:06:53.964Z,9.37
2017-07-06T02:07:53.628Z,9.48
2017-07-06T02:08:53.940Z,9.37
2017-07-06T02:09:53.625Z,9.48
2017-07-06T02:10:53.924Z,9.44
2017-07-06T02:11:53.913Z,9.5
2017-07-06T02:12:53.913Z,9.48
2017-07-06T02:13:53.887Z,9.37
2017-07-06T02:14:53.887Z,9.49
2017-07-06T02:15:53.864Z,9.38
2017-07-06T02:16:53.858Z,9.4
2017-07-06T02:17:53.845Z,9.37
2017-07-06T02:18:53.838Z,9.34
2017-07-06T02:19:53.828Z,9.37
2017-07-06T02:20:53.811Z,9.37
2017-07-06T02:21:53.807Z,9.44
2017-07-06T02:22:53.491Z,9.37
2017-07-06T02:23:53.477Z,9.35
2017-07-06T02:24:53.783Z,9.38
2017-07-06T02:25:53.766Z,9.41
2017-07-06T02:26:53.757Z,9.38
2017-07-06T02:27:53.751Z,9.53
2017-07-06T02:28:53.746Z,9.48
2017-07-06T02:29:53.727Z,9.42
2017-07-06T02:30:53.713Z,9.34
2017-07-06T02:31:53.705Z,9.35
2017-07-06T02:32:53.383Z,9.37
2017-07-06T02:33:53.367Z,9.4
2017-07-06T02:34:53.676Z,9.41
2017-07-06T02:35:53.362Z,9.35
2017-07-06T02:36:53.654Z,9.37
2017-07-06T02:37:53.639Z,9.4
2017-07-06T02:38:53.642Z,9.35
2017-07-06T02:39:53.626Z,9.32
2017-07-06T02:40:53.613Z,9.32
2017-07-06T02:41:53.602Z,9.32
2017-07-06T02:42:53.597Z,9.41
2017-07-06T02:43:53.269Z,9.37
2017-07-06T02:44:53.576Z,9.37
2017-07-06T02:45:52.938Z,9.37
2017-07-06T02:46:53.239Z,9.37
2017-07-06T02:47:53.542Z,9.35
2017-07-06T02:48:53.541Z,9.34
2017-07-06T02:49:53.513Z,9.38
2017-07-06T02:50:53.528Z,9.38
2017-07-06T02:51:53.517Z,9.38
2017-07-06T02:52:52.867Z,9.4
2017-07-06T02:53:53.172Z,9.4
2017-07-06T02:54:53.482Z,9.42
2017-07-06T02:55:53.474Z,9.37
2017-07-06T02:56:53.145Z,9.4
2017-07-06T02:57:53.133Z,9.27
2017-07-06T02:58:53.423Z,9.23
2017-07-06T02:59:53.416Z,9.35
2017-07-06T03:00:53.409Z,9.35
2017-07-06T03:01:53.091Z,9.27
2017-07-06T03:02:53.392Z,9.31
2017-07-06T03:03:53.385Z,9.35
2017-07-06T03:04:53.365Z,9.37
2017-07-06T03:05:53.059Z,9.35
2017-07-06T03:06:53.345Z,9.3
2017-07-06T03:07:53.404Z,9.41
2017-07-06T03:08:53.326Z,9.34
2017-07-06T03:09:53.369Z,9.34
2017-07-06T03:10:53.312Z,9.34
2017-07-06T03:11:53.310Z,9.24
2017-07-06T03:12:53.289Z,9.26
2017-07-06T03:13:53.277Z,9.35
2017-07-06T03:14:53.268Z,9.31
2017-07-06T03:15:53.260Z,9.35
2017-07-06T03:16:53.244Z,9.32
2017-07-06T03:17:53.240Z,9.31
2017-07-06T03:18:52.916Z,9.32
2017-07-06T03:19:52.908Z,9.37
2017-07-06T03:20:52.891Z,9.3
2017-07-06T03:21:53.196Z,9.35
2017-07-06T03:22:52.877Z,9.24
2017-07-06T03:23:53.173Z,9.26
2017-07-06T03:24:52.854Z,9.19
2017-07-06T03:25:53.148Z,9.24
2017-07-06T03:26:53.144Z,9.19
2017-07-06T03:27:53.134Z,9.23
2017-07-06T03:28:53.136Z,9.3
2017-07-06T03:29:52.806Z,9.27
2017-07-06T03:30:53.106Z,9.31
2017-07-06T03:31:52.787Z,9.23
2017-07-06T03:32:53.093Z,9.26
2017-07-06T03:33:52.765Z,9.32
2017-07-06T03:34:53.066Z,9.35
2017-07-06T03:35:53.056Z,9.27
2017-07-06T03:36:53.049Z,9.23
2017-07-06T03:37:52.732Z,9.27
2017-07-06T03:38:53.033Z,9.23
2017-07-06T03:39:52.701Z,9.27
2017-07-06T03:40:52.689Z,9.22
2017-07-06T03:41:52.691Z,9.24
2017-07-06T03:42:52.984Z,9.24
2017-07-06T03:43:52.667Z,9.22
2017-07-06T03:44:52.663Z,9.2
2017-07-06T03:45:52.959Z,9.24
2017-07-06T03:46:52.945Z,9.24
2017-07-06T03:47:52.929Z,9.37
2017-07-06T03:48:52.615Z,9.22
2017-07-06T03:49:52.601Z,9.24
2017-07-06T03:50:52.283Z,9.24
2017-07-06T03:51:52.901Z,9.27
2017-07-06T03:52:52.884Z,9.22
2017-07-06T03:53:52.881Z,9.3
2017-07-06T03:54:52.863Z,9.24
2017-07-06T03:55:52.543Z,9.2
2017-07-06T03:56:52.850Z,9.24
2017-07-06T03:57:52.832Z,9.34
2017-07-06T03:58:52.813Z,9.35
2017-07-06T03:59:52.502Z,9.27
2017-07-06T04:00:52.801Z,9.4
2017-07-06T04:01:52.796Z,9.26
2017-07-06T04:02:52.787Z,9.37
2017-07-06T04:03:52.764Z,9.35
2017-07-06T04:04:52.760Z,9.3
2017-07-06T04:05:52.740Z,9.31
2017-07-06T04:06:52.740Z,9.32
2017-07-06T04:07:52.732Z,9.3
2017-07-06T04:08:52.723Z,9.34
2017-07-06T04:09:52.709Z,9.3
2017-07-06T04:10:52.389Z,9.37
2017-07-06T04:11:52.686Z,9.22
2017-07-06T04:12:52.674Z,9.26
2017-07-06T04:13:52.666Z,9.31
2017-07-06T04:14:52.345Z,9.34
2017-07-06T04:15:52.333Z,9.23
2017-07-06T04:16:52.642Z,9.27
2017-07-06T04:17:52.622Z,9.24
2017-07-06T04:18:52.625Z,9.27
2017-07-06T04:19:52.614Z,9.31
2017-07-06T04:20:52.586Z,9.3
2017-07-06T04:21:52.591Z,9.24
2017-07-06T04:22:52.563Z,9.23
2017-07-06T04:23:51.940Z,9.2
2017-07-06T04:24:52.556Z,9.2
2017-07-06T04:25:52.538Z,9.24
2017-07-06T04:26:52.226Z,9.27
2017-07-06T04:27:52.209Z,9.34
2017-07-06T04:28:52.509Z,9.26
2017-07-06T04:29:52.500Z,9.31
2017-07-06T04:30:52.498Z,9.3
2017-07-06T04:31:52.173Z,9.38
2017-07-06T04:32:52.469Z,9.34
2017-07-06T04:33:52.459Z,9.24
2017-07-06T04:34:52.453Z,9.23
2017-07-06T04:35:52.138Z,9.27
2017-07-06T04:36:52.433Z,9.3
2017-07-06T04:37:52.108Z,9.24
2017-07-06T04:38:52.414Z,9.22
2017-07-06T04:39:52.407Z,9.24
2017-07-06T04:40:52.388Z,9.26
2017-07-06T04:41:52.377Z,9.32
2017-07-06T04:42:52.360Z,9.6
2017-07-06T04:43:52.355Z,9.93
2017-07-06T04:44:52.342Z,10.01
2017-07-06T04:45:52.337Z,10.02
2017-07-06T04:46:52.325Z,10.1
2017-07-06T04:47:52.322Z,10.22
2017-07-06T04:48:52.306Z,10.24
2017-07-06T04:49:52.302Z,10.28
2017-07-06T04:50:52.280Z,10.34
2017-07-06T04:51:52.278Z,10.32
2017-07-06T04:52:51.648Z,10.29
2017-07-06T04:53:51.947Z,10.35
2017-07-06T04:54:52.242Z,10.35
2017-07-06T04:55:51.926Z,10.34
2017-07-06T04:56:52.218Z,10.43
2017-07-06T04:57:52.206Z,10.39
2017-07-06T04:58:52.206Z,10.42
2017-07-06T04:59:52.192Z,10.47
2017-07-06T05:00:52.178Z,10.55
2017-07-06T05:01:52.181Z,10.52
2017-07-06T05:02:52.167Z,10.55
2017-07-06T05:03:52.177Z,10.54
2017-07-06T05:04:52.150Z,10.63
2017-07-06T05:05:52.134Z,10.51
2017-07-06T05:06:52.126Z,10.65
2017-07-06T05:07:52.117Z,10.8
2017-07-06T05:08:52.106Z,10.66
2017-07-06T05:09:52.098Z,10.63
2017-07-06T05:10:51.775Z,10.7
2017-07-06T05:11:52.087Z,10.73
2017-07-06T05:12:52.074Z,10.66
2017-07-06T05:13:52.059Z,10.78
2017-07-06T05:14:52.060Z,10.63
2017-07-06T05:15:52.039Z,10.7
2017-07-06T05:16:52.032Z,10.57
2017-07-06T05:17:52.021Z,10.63
2017-07-06T05:18:52.011Z,10.66
2017-07-06T05:19:52.009Z,10.66
2017-07-06T05:20:51.991Z,10.76
2017-07-06T05:21:51.982Z,10.65
2017-07-06T05:22:51.967Z,10.68
2017-07-06T05:23:51.339Z,10.68
2017-07-06T05:24:51.952Z,10.68
2017-07-06T05:25:51.937Z,10.63
2017-07-06T05:26:51.938Z,10.66
2017-07-06T05:27:51.922Z,10.73
2017-07-06T05:28:51.969Z,10.69
2017-07-06T05:29:51.906Z,10.87
2017-07-06T05:30:51.901Z,10.8
2017-07-06T05:31:51.882Z,10.8
2017-07-06T05:32:51.868Z,10.83
2017-07-06T05:33:51.867Z,10.81
2017-07-06T05:34:51.857Z,10.8
2017-07-06T05:35:51.536Z,10.83
2017-07-06T05:36:51.833Z,10.95
2017-07-06T05:37:51.828Z,10.87
2017-07-06T05:38:51.818Z,10.98
2017-07-06T05:39:51.505Z,10.99
2017-07-06T05:40:51.808Z,11.09
2017-07-06T05:41:51.793Z,11.09
2017-07-06T05:42:51.790Z,11.24
2017-07-06T05:43:51.456Z,11.62
2017-07-06T05:44:51.758Z,11.59
2017-07-06T05:45:51.757Z,11.26
2017-07-06T05:46:51.738Z,11.12
2017-07-06T05:47:51.428Z,11.16
2017-07-06T05:48:51.727Z,10.99
2017-07-06T05:49:51.738Z,11.09
2017-07-06T05:50:51.711Z,11.26
2017-07-06T05:51:51.754Z,11.39
2017-07-06T05:52:51.693Z,11.53
2017-07-06T05:53:51.684Z,11.63
2017-07-06T05:54:51.672Z,11.45
2017-07-06T05:55:51.665Z,11.28
2017-07-06T05:56:51.661Z,11.13
2017-07-06T05:57:51.339Z,11.24
2017-07-06T05:58:51.636Z,11.41
2017-07-06T05:59:51.630Z,11.45
2017-07-06T06:00:51.314Z,11.56
2017-07-06T06:01:51.611Z,11.66
2017-07-06T06:02:51.298Z,11.44
2017-07-06T06:03:51.600Z,11.6
2017-07-06T06:04:51.582Z,11.42
2017-07-06T06:05:51.257Z,11.62
2017-07-06T06:06:51.252Z,11.6
2017-07-06T06:07:51.252Z,11.45
2017-07-06T06:08:51.238Z,11.57
2017-07-06T06:09:51.230Z,11.67
2017-07-06T06:10:51.537Z,11.57
2017-07-06T06:11:51.513Z,11.74
2017-07-06T06:12:51.509Z,11.79
2017-07-06T06:13:51.503Z,11.9
2017-07-06T06:14:51.494Z,12.04
2017-07-06T06:15:51.482Z,11.56
2017-07-06T06:16:51.477Z,11.7
2017-07-06T06:17:51.471Z,11.77
2017-07-06T06:18:51.157Z,12.04
2017-07-06T06:19:51.511Z,11.87
2017-07-06T06:20:51.442Z,12.03
2017-07-06T06:21:51.439Z,11.88
2017-07-06T06:22:51.115Z,11.84
2017-07-06T06:23:50.800Z,12.41
2017-07-06T06:24:51.403Z,12.05
2017-07-06T06:25:51.408Z,12.34
2017-07-06T06:26:51.390Z,12.19
2017-07-06T06:27:51.384Z,12.23
2017-07-06T06:28:51.376Z,11.93
2017-07-06T06:29:51.366Z,12.36
2017-07-06T06:30:51.369Z,12.37
2017-07-06T06:31:51.355Z,12.49
2017-07-06T06:32:51.342Z,12.15
2017-07-06T06:33:50.713Z,12.29
2017-07-06T06:34:51.333Z,12.37
2017-07-06T06:35:51.327Z,12.33
2017-07-06T06:36:51.307Z,12.71
2017-07-06T06:37:51.296Z,12.61
2017-07-06T06:38:51.305Z,12.61
2017-07-06T06:39:51.289Z,12.43
2017-07-06T06:40:51.280Z,12.36
2017-07-06T06:41:51.271Z,12.44
2017-07-06T06:42:51.317Z,12.56
2017-07-06T06:43:51.260Z,12.62
2017-07-06T06:44:51.250Z,12.73
2017-07-06T06:45:51.251Z,12.88
2017-07-06T06:46:51.236Z,12.41
2017-07-06T06:47:51.225Z,12.41
2017-07-06T06:48:51.225Z,12.49
2017-07-06T06:49:51.208Z,12.66
2017-07-06T06:50:51.209Z,12.69
2017-07-06T06:51:51.204Z,12.59
2017-07-06T06:52:50.872Z,12.4
2017-07-06T06:53:51.173Z,12.61
2017-07-06T06:54:51.167Z,12.77
2017-07-06T06:55:51.170Z,12.96
2017-07-06T06:56:51.161Z,13.03
2017-07-06T06:57:51.154Z,13.06
2017-07-06T06:58:51.137Z,13.39
2017-07-06T06:59:51.133Z,13.69
2017-07-06T07:00:51.122Z,13.79
2017-07-06T07:01:51.113Z,13.86
2017-07-06T07:02:51.113Z,14.13
2017-07-06T07:03:51.100Z,14.2
2017-07-06T07:04:51.097Z,14.05
2017-07-06T07:05:51.088Z,14.26
2017-07-06T07:06:51.112Z,14.05
2017-07-06T07:07:51.084Z,14.21
2017-07-06T07:08:51.068Z,14.42
2017-07-06T07:09:51.068Z,14.53
2017-07-06T07:10:51.051Z,14.87
2017-07-06T07:11:51.054Z,14.72
2017-07-06T07:12:51.036Z,14.72
2017-07-06T07:13:51.038Z,14.71
2017-07-06T07:14:51.023Z,14.29
2017-07-06T07:15:51.027Z,14.66
2017-07-06T07:16:51.010Z,14.38
2017-07-06T07:17:51.010Z,13.71
2017-07-06T07:18:51.000Z,13.41
2017-07-06T07:19:50.689Z,13.41
2017-07-06T07:20:50.992Z,13.76
2017-07-06T07:21:50.987Z,13.91
2017-07-06T07:22:50.987Z,14.19
2017-07-06T07:23:50.656Z,14.01
2017-07-06T07:24:50.659Z,13.84
2017-07-06T07:25:50.966Z,14.44
2017-07-06T07:26:50.946Z,14.48
2017-07-06T07:27:50.942Z,13.98
2017-07-06T07:28:50.630Z,13.68
2017-07-06T07:29:50.618Z,13.99
2017-07-06T07:30:50.629Z,14.11
2017-07-06T07:31:50.916Z,13.94
2017-07-06T07:32:50.602Z,13.93
2017-07-06T07:33:50.292Z,14.2
2017-07-06T07:34:50.902Z,14.49
2017-07-06T07:35:50.586Z,14.52
2017-07-06T07:36:50.580Z,14.38
2017-07-06T07:37:50.265Z,14.31
2017-07-06T07:38:50.563Z,14.06
2017-07-06T07:39:50.875Z,14.06
2017-07-06T07:40:50.550Z,14.08
2017-07-06T07:41:50.551Z,14.08
2017-07-06T07:42:50.849Z,13.99
2017-07-06T07:43:50.839Z,13.71
2017-07-06T07:44:50.836Z,13.62
2017-07-06T07:45:50.836Z,13.75
2017-07-06T07:46:50.827Z,14.49
2017-07-06T07:47:50.826Z,14.8
2017-07-06T07:48:50.812Z,14.69
2017-07-06T07:49:50.497Z,14.64
2017-07-06T07:50:50.806Z,14.67
2017-07-06T07:51:50.790Z,14.64
2017-07-06T07:52:50.785Z,14.67
2017-07-06T07:53:50.786Z,14.78
2017-07-06T07:54:50.779Z,14.98
2017-07-06T07:55:50.770Z,15.4
2017-07-06T07:56:50.765Z,15.99
2017-07-06T07:57:50.766Z,15.92
2017-07-06T07:58:50.748Z,16.06
2017-07-06T07:59:50.748Z,16.36
2017-07-06T08:00:50.741Z,16.17
2017-07-06T08:01:50.752Z,15.93
2017-07-06T08:02:50.739Z,14.79
2017-07-06T08:03:50.785Z,14.66
2017-07-06T08:04:50.729Z,14.53
2017-07-06T08:05:50.720Z,14.8
2017-07-06T08:06:50.708Z,14.48
2017-07-06T08:07:50.710Z,14.31
2017-07-06T08:08:50.379Z,14.63
2017-07-06T08:09:50.381Z,14.79
2017-07-06T08:10:50.680Z,15.03
2017-07-06T08:11:50.055Z,15.64
2017-07-06T08:12:50.671Z,16.1
2017-07-06T08:13:50.662Z,17
2017-07-06T08:14:50.352Z,17.65
2017-07-06T08:15:50.347Z,18.01
2017-07-06T08:16:50.646Z,17.92
2017-07-06T08:17:50.340Z,18.13
2017-07-06T08:18:50.649Z,18.04
2017-07-06T08:19:50.640Z,17.71
2017-07-06T08:20:50.638Z,16.98
2017-07-06T08:21:50.631Z,15.7
2017-07-06T08:22:50.318Z,15.16
2017-07-06T08:23:50.307Z,15.15
2017-07-06T08:24:50.306Z,15.28
2017-07-06T08:25:50.294Z,15.07
2017-07-06T08:26:50.603Z,15.31
2017-07-06T08:27:50.598Z,15.18
2017-07-06T08:28:50.595Z,15.23
2017-07-06T08:29:50.599Z,15.19
2017-07-06T08:30:50.583Z,15.16
2017-07-06T08:31:50.273Z,15.31
2017-07-06T08:32:50.589Z,15.04
2017-07-06T08:33:50.559Z,15.58
2017-07-06T08:34:50.561Z,15.71
2017-07-06T08:35:50.570Z,16.17
2017-07-06T08:36:50.546Z,16.4
2017-07-06T08:37:50.232Z,16.08
2017-07-06T08:38:50.235Z,16.11
2017-07-06T08:39:50.533Z,15.89
2017-07-06T08:40:50.533Z,15.64
2017-07-06T08:41:50.213Z,15.99
2017-07-06T08:42:50.526Z,16.52
2017-07-06T08:43:50.513Z,16.51
2017-07-06T08:44:50.517Z,16.32
2017-07-06T08:45:49.886Z,15.95
2017-07-06T08:46:50.509Z,16.04
2017-07-06T08:47:50.197Z,16.16
2017-07-06T08:48:50.188Z,16.25
2017-07-06T08:49:50.489Z,15.99
2017-07-06T08:50:50.496Z,16.18
2017-07-06T08:51:50.476Z,16.42
2017-07-06T08:52:50.480Z,16.25
2017-07-06T08:53:50.158Z,16.36
2017-07-06T08:54:50.471Z,17.07
2017-07-06T08:55:50.472Z,17.15
2017-07-06T08:56:50.470Z,17.3
2017-07-06T08:57:50.457Z,17.14
2017-07-06T08:58:50.454Z,17.33
2017-07-06T08:59:50.449Z,16.9
2017-07-06T09:00:50.444Z,16.91
2017-07-06T09:01:50.449Z,17
2017-07-06T09:02:50.436Z,17.05
2017-07-06T09:03:49.815Z,16.91
2017-07-06T09:04:50.428Z,16.92
2017-07-06T09:05:50.428Z,16.75
2017-07-06T09:06:50.429Z,17.3
2017-07-06T09:07:50.103Z,17.45
2017-07-06T09:08:50.417Z,17.65
2017-07-06T09:09:50.407Z,17.57
2017-07-06T09:10:50.407Z,17.73
2017-07-06T09:11:50.401Z,17.36
2017-07-06T09:12:50.397Z,17.06
2017-07-06T09:13:50.385Z,16.82
2017-07-06T09:14:50.377Z,17.63
2017-07-06T09:15:50.376Z,18.31
2017-07-06T09:16:50.371Z,17.73
2017-07-06T09:17:50.383Z,17.4
2017-07-06T09:18:50.366Z,17.42
2017-07-06T09:19:50.054Z,17.77
2017-07-06T09:20:50.365Z,17.54
2017-07-06T09:21:49.736Z,17.4
2017-07-06T09:22:50.040Z,16.96
2017-07-06T09:23:49.724Z,16.59
2017-07-06T09:24:50.336Z,16.66
2017-07-06T09:25:50.336Z,16.78
2017-07-06T09:26:50.348Z,16.4
2017-07-06T09:27:50.333Z,16.73
2017-07-06T09:28:50.326Z,16.51
2017-07-06T09:29:50.005Z,16.48
2017-07-06T09:30:50.325Z,16.63
2017-07-06T09:31:50.328Z,17
2017-07-06T09:32:49.686Z,16.87
2017-07-06T09:33:50.301Z,16.72
2017-07-06T09:34:50.305Z,16.87
2017-07-06T09:35:50.288Z,16.6
2017-07-06T09:36:50.352Z,16.25
2017-07-06T09:37:50.292Z,16.11
2017-07-06T09:38:49.974Z,16.17
2017-07-06T09:39:50.278Z,16.13
2017-07-06T09:40:49.653Z,15.78
2017-07-06T09:41:50.265Z,15.43
2017-07-06T09:42:50.262Z,15.56
2017-07-06T09:43:50.268Z,15.23
2017-07-06T09:44:50.248Z,15.31
2017-07-06T09:45:50.247Z,15.22
2017-07-06T09:46:50.234Z,15.44
2017-07-06T09:47:50.254Z,15.52
2017-07-06T09:48:50.230Z,15.67
2017-07-06T09:49:49.914Z,15.41
2017-07-06T09:50:49.904Z,15.4
2017-07-06T09:51:49.898Z,15.6
2017-07-06T09:52:50.203Z,15.62
2017-07-06T09:53:50.211Z,16.1
2017-07-06T09:54:49.881Z,16.77
2017-07-06T09:55:50.193Z,17.3
2017-07-06T09:56:49.879Z,17.91
2017-07-06T09:57:49.866Z,18.35
2017-07-06T09:58:49.863Z,17.79
2017-07-06T09:59:50.176Z,16.75
2017-07-06T10:00:50.171Z,16.54
2017-07-06T10:01:50.171Z,16.4
2017-07-06T10:02:49.846Z,16.23
2017-07-06T10:03:49.849Z,16.04
2017-07-06T10:04:49.838Z,16.01
2017-07-06T10:05:49.839Z,16.34
2017-07-06T10:06:49.831Z,16.52
2017-07-06T10:07:49.831Z,16.3
2017-07-06T10:08:49.816Z,16.52
2017-07-06T10:09:50.141Z,16.3
2017-07-06T10:10:50.112Z,16.65
2017-07-06T10:11:49.803Z,16.44
2017-07-06T10:12:49.802Z,16.29
2017-07-06T10:13:50.118Z,16.42
2017-07-06T10:14:50.103Z,16.57
2017-07-06T10:15:49.793Z,16.47
2017-07-06T10:16:50.100Z,16.37
2017-07-06T10:17:50.094Z,16.78
2017-07-06T10:18:50.082Z,16.63
2017-07-06T10:19:49.761Z,16.52
2017-07-06T10:20:49.772Z,16.32
2017-07-06T10:21:50.066Z,16.11
2017-07-06T10:22:49.753Z,16.34
2017-07-06T10:23:49.436Z,16.08
2017-07-06T10:24:49.738Z,16.62
2017-07-06T10:25:50.053Z,17.33
2017-07-06T10:26:50.037Z,17.51
2017-07-06T10:27:50.047Z,17.53
2017-07-06T10:28:50.043Z,17.18
2017-07-06T10:29:49.714Z,17.21
2017-07-06T10:30:50.029Z,17.54
2017-07-06T10:31:50.016Z,17.77
2017-07-06T10:32:49.707Z,17.66
2017-07-06T10:33:50.014Z,17.32
2017-07-06T10:34:49.707Z,17.39
2017-07-06T10:35:50.005Z,17.49
2017-07-06T10:36:49.994Z,16.9
2017-07-06T10:37:49.998Z,16.72
2017-07-06T10:38:50.003Z,17.05
2017-07-06T10:39:49.989Z,17.51
2017-07-06T10:40:49.982Z,17.81
2017-07-06T10:41:49.973Z,17.95
2017-07-06T10:42:49.977Z,17.54
2017-07-06T10:43:49.664Z,17.39
2017-07-06T10:44:49.974Z,17.39
2017-07-06T10:45:49.954Z,17.8
2017-07-06T10:46:49.955Z,18.01
2017-07-06T10:47:49.952Z,18.01
2017-07-06T10:48:49.635Z,18.19
2017-07-06T10:49:49.943Z,18.29
2017-07-06T10:50:49.935Z,18.25
2017-07-06T10:51:49.932Z,18.29
2017-07-06T10:52:49.935Z,19.1
2017-07-06T10:53:49.926Z,20.22
2017-07-06T10:54:49.619Z,20.63
2017-07-06T10:55:49.922Z,20.9
2017-07-06T10:56:49.919Z,21.24
2017-07-06T10:57:49.919Z,20.5
2017-07-06T10:58:49.598Z,19.64
2017-07-06T10:59:49.912Z,18.91
2017-07-06T11:00:49.590Z,18.23
2017-07-06T11:01:49.898Z,17.76
2017-07-06T11:02:49.900Z,17.28
2017-07-06T11:03:49.906Z,17.14
2017-07-06T11:04:49.892Z,16.84
2017-07-06T11:05:49.882Z,16.33
2017-07-06T11:06:49.878Z,16.11
2017-07-06T11:07:49.886Z,15.89
2017-07-06T11:08:49.886Z,15.52
2017-07-06T11:09:49.875Z,15.15
2017-07-06T11:10:49.882Z,15.66
2017-07-06T11:11:49.551Z,15.41
2017-07-06T11:12:49.864Z,15.99
2017-07-06T11:13:49.544Z,16.1
2017-07-06T11:14:49.231Z,16.55
2017-07-06T11:15:49.851Z,16.17
2017-07-06T11:16:49.223Z,16.52
2017-07-06T11:17:49.846Z,16.08
2017-07-06T11:18:49.217Z,16.06
2017-07-06T11:19:49.836Z,15.93
2017-07-06T11:20:49.837Z,16.33
2017-07-06T11:21:49.818Z,16.62
2017-07-06T11:22:49.824Z,17.39
2017-07-06T11:23:49.511Z,18.26
2017-07-06T11:24:49.810Z,18.75
2017-07-06T11:25:49.807Z,19.1
2017-07-06T11:26:49.793Z,19.12
2017-07-06T11:27:49.797Z,19.83
2017-07-06T11:28:49.791Z,20.34
2017-07-06T11:29:49.779Z,20
2017-07-06T11:30:49.779Z,19.12
2017-07-06T11:31:49.791Z,18.71
2017-07-06T11:32:49.778Z,18.44
2017-07-06T11:33:49.781Z,18.25
2017-07-06T11:34:49.772Z,18.36
2017-07-06T11:35:49.778Z,18.84
2017-07-06T11:36:49.767Z,19.01
2017-07-06T11:37:49.762Z,19.12
2017-07-06T11:38:49.757Z,19.53
2017-07-06T11:39:49.445Z,19.72
2017-07-06T11:40:49.750Z,20.16
2017-07-06T11:41:49.744Z,20.42
2017-07-06T11:42:49.745Z,18.93
2017-07-06T11:43:49.742Z,18.79
2017-07-06T11:44:49.746Z,17.84
2017-07-06T11:45:49.732Z,17.73
2017-07-06T11:46:49.431Z,18.86
2017-07-06T11:47:49.739Z,19.86
2017-07-06T11:48:49.722Z,19.53
2017-07-06T11:49:49.110Z,18.6
2017-07-06T11:50:49.734Z,17.55
2017-07-06T11:51:49.730Z,17.17
2017-07-06T11:52:49.726Z,17.35
2017-07-06T11:53:49.726Z,18.38
2017-07-06T11:54:49.713Z,18.13
2017-07-06T11:55:49.713Z,17.87
2017-07-06T11:56:49.396Z,17.79
2017-07-06T11:57:49.703Z,17.68
2017-07-06T11:58:49.702Z,17.45
2017-07-06T11:59:49.713Z,17.58
2017-07-06T12:00:49.386Z,18.51
2017-07-06T12:01:49.374Z,18.01
2017-07-06T12:02:49.700Z,17.24
2017-07-06T12:03:49.686Z,17.09
2017-07-06T12:04:49.377Z,17.22
2017-07-06T12:05:49.379Z,17.3
2017-07-06T12:06:49.672Z,17.95
2017-07-06T12:07:49.684Z,18.57
2017-07-06T12:08:49.365Z,19.1
2017-07-06T12:09:49.657Z,18.87
2017-07-06T12:10:49.666Z,17.77
2017-07-06T12:11:49.671Z,17.54
2017-07-06T12:12:49.348Z,17.27
2017-07-06T12:13:49.658Z,17.42
2017-07-06T12:14:49.652Z,18.17
2017-07-06T12:15:49.654Z,19.24
2017-07-06T12:16:49.340Z,19.2
2017-07-06T12:17:49.639Z,20.04
2017-07-06T12:18:49.635Z,20.37
2017-07-06T12:19:49.630Z,20.87
2017-07-06T12:20:49.317Z,20.12
2017-07-06T12:21:49.629Z,19.65
2017-07-06T12:22:49.322Z,19.68
2017-07-06T12:23:49.324Z,20.16
2017-07-06T12:24:49.614Z,21.03
2017-07-06T12:25:49.629Z,21.26
2017-07-06T12:26:49.625Z,21.22
2017-07-06T12:27:49.623Z,20.23
2017-07-06T12:28:48.987Z,19.92
2017-07-06T12:29:49.303Z,19.17
2017-07-06T12:30:49.291Z,18.72
2017-07-06T12:31:49.598Z,19.98
2017-07-06T12:32:49.294Z,20.66
2017-07-06T12:33:49.595Z,20.78
2017-07-06T12:34:49.598Z,21.12
2017-07-06T12:35:49.599Z,20.5
2017-07-06T12:36:49.601Z,19.47
2017-07-06T12:37:49.598Z,18.47
2017-07-06T12:38:49.594Z,17.53
2017-07-06T12:39:49.584Z,17.32
2017-07-06T12:40:49.268Z,17.63
2017-07-06T12:41:49.278Z,18.93
2017-07-06T12:42:49.580Z,20.07
2017-07-06T12:43:49.586Z,20.33
2017-07-06T12:44:49.576Z,20.88
2017-07-06T12:45:49.580Z,20.94
2017-07-06T12:46:49.576Z,21.18
2017-07-06T12:47:49.576Z,20.66
2017-07-06T12:48:49.562Z,20.57
2017-07-06T12:49:49.254Z,20.53
2017-07-06T12:50:49.567Z,21.11
2017-07-06T12:51:49.566Z,21.03
2017-07-06T12:52:49.252Z,21.01
2017-07-06T12:53:49.560Z,20.93
2017-07-06T12:54:49.545Z,20.51
2017-07-06T12:55:49.243Z,20.48
2017-07-06T12:56:49.560Z,21.16
2017-07-06T12:57:49.545Z,21.12
2017-07-06T12:58:49.438Z,20
2017-07-06T12:59:49.240Z,19.1
2017-07-06T13:00:49.541Z,18.64
2017-07-06T13:01:49.546Z,18.28
2017-07-06T13:02:49.543Z,17.7
2017-07-06T13:03:49.225Z,17.53
2017-07-06T13:04:49.540Z,17.47
2017-07-06T13:05:49.418Z,17.36